sensor_id;sensor_type;location;lat;lon;timestamp;P1;durP1;ratioP1;P2;durP2;ratioP2
64907;SDS011;51412;52.236;5.188;2022-07-23T00:00:56;4.72;;;3.65;;
64907;SDS011;51412;52.236;5.188;2022-07-23T00:03:23;5.82;;;3.40;;
64907;SDS011;51412;52.236;5.188;2022-07-23T00:05:49;5.40;;;3.80;;
64907;SDS011;51412;52.236;5.188;2022-07-23T00:08:17;6.07;;;3.83;;
64907;SDS011;51412;52.236;5.188;2022-07-23T00:10:44;4.88;;;3.72;;
64907;SDS011;51412;52.236;5.188;2022-07-23T00:13:10;6.40;;;4.05;;
64907;SDS011;51412;52.236;5.188;2022-07-23T00:15:37;7.25;;;3.80;;
64907;SDS011;51412;52.236;5.188;2022-07-23T00:18:03;7.30;;;3.72;;
64907;SDS011;51412;52.236;5.188;2022-07-23T00:20:29;5.53;;;3.50;;
64907;SDS011;51412;52.236;5.188;2022-07-23T00:22:56;7.03;;;3.47;;
64907;SDS011;51412;52.236;5.188;2022-07-23T00:25:24;4.45;;;3.50;;
64907;SDS011;51412;52.236;5.188;2022-07-23T00:27:52;4.70;;;3.60;;
64907;SDS011;51412;52.236;5.188;2022-07-23T00:30:18;5.35;;;3.67;;
64907;SDS011;51412;52.236;5.188;2022-07-23T00:32:46;4.55;;;3.42;;
64907;SDS011;51412;52.236;5.188;2022-07-23T00:35:13;5.05;;;4.03;;
64907;SDS011;51412;52.236;5.188;2022-07-23T00:37:40;7.25;;;3.55;;
64907;SDS011;51412;52.236;5.188;2022-07-23T00:40:08;6.40;;;4.03;;
64907;SDS011;51412;52.236;5.188;2022-07-23T00:42:36;4.43;;;3.47;;
64907;SDS011;51412;52.236;5.188;2022-07-23T00:45:03;5.88;;;3.95;;
64907;SDS011;51412;52.236;5.188;2022-07-23T00:47:30;7.60;;;3.80;;
64907;SDS011;51412;52.236;5.188;2022-07-23T00:49:57;8.02;;;3.75;;
64907;SDS011;51412;52.236;5.188;2022-07-23T00:52:24;5.30;;;3.90;;
64907;SDS011;51412;52.236;5.188;2022-07-23T00:54:50;6.50;;;4.00;;
64907;SDS011;51412;52.236;5.188;2022-07-23T00:57:17;5.88;;;3.67;;
64907;SDS011;51412;52.236;5.188;2022-07-23T00:59:45;6.30;;;4.03;;
64907;SDS011;51412;52.236;5.188;2022-07-23T01:02:12;7.28;;;3.50;;
64907;SDS011;51412;52.236;5.188;2022-07-23T01:04:38;5.93;;;4.00;;
64907;SDS011;51412;52.236;5.188;2022-07-23T01:07:05;4.30;;;3.50;;
64907;SDS011;51412;52.236;5.188;2022-07-23T01:09:32;7.32;;;3.42;;
64907;SDS011;51412;52.236;5.188;2022-07-23T01:11:59;4.25;;;3.50;;
64907;SDS011;51412;52.236;5.188;2022-07-23T01:14:25;6.38;;;4.00;;
64907;SDS011;51412;52.236;5.188;2022-07-23T01:16:54;5.97;;;3.47;;
64907;SDS011;51412;52.236;5.188;2022-07-23T01:19:20;4.63;;;4.00;;
64907;SDS011;51412;52.236;5.188;2022-07-23T01:21:47;4.20;;;3.80;;
64907;SDS011;51412;52.236;5.188;2022-07-23T01:24:17;3.25;;;2.90;;
64907;SDS011;51412;52.236;5.188;2022-07-23T01:26:44;5.00;;;3.67;;
64907;SDS011;51412;52.236;5.188;2022-07-23T01:29:12;5.47;;;3.90;;
64907;SDS011;51412;52.236;5.188;2022-07-23T01:31:39;6.15;;;4.07;;
64907;SDS011;51412;52.236;5.188;2022-07-23T01:34:06;4.90;;;3.72;;
64907;SDS011;51412;52.236;5.188;2022-07-23T01:36:33;6.18;;;3.90;;
64907;SDS011;51412;52.236;5.188;2022-07-23T01:39:00;5.57;;;4.10;;
64907;SDS011;51412;52.236;5.188;2022-07-23T01:41:28;4.63;;;3.60;;
64907;SDS011;51412;52.236;5.188;2022-07-23T01:43:54;5.43;;;3.78;;
64907;SDS011;51412;52.236;5.188;2022-07-23T01:46:21;6.55;;;3.88;;
64907;SDS011;51412;52.236;5.188;2022-07-23T01:48:47;5.82;;;3.78;;
64907;SDS011;51412;52.236;5.188;2022-07-23T01:51:14;5.95;;;3.78;;
64907;SDS011;51412;52.236;5.188;2022-07-23T01:53:41;4.90;;;3.90;;
64907;SDS011;51412;52.236;5.188;2022-07-23T01:56:08;6.55;;;4.45;;
64907;SDS011;51412;52.236;5.188;2022-07-23T01:58:35;6.05;;;3.80;;
64907;SDS011;51412;52.236;5.188;2022-07-23T02:01:02;5.57;;;4.00;;
64907;SDS011;51412;52.236;5.188;2022-07-23T02:03:28;6.45;;;3.90;;
64907;SDS011;51412;52.236;5.188;2022-07-23T02:05:55;7.50;;;4.00;;
64907;SDS011;51412;52.236;5.188;2022-07-23T02:08:21;4.88;;;4.00;;
64907;SDS011;51412;52.236;5.188;2022-07-23T02:10:48;5.07;;;3.70;;
64907;SDS011;51412;52.236;5.188;2022-07-23T02:13:16;6.22;;;4.35;;
64907;SDS011;51412;52.236;5.188;2022-07-23T02:15:44;8.93;;;4.45;;
64907;SDS011;51412;52.236;5.188;2022-07-23T02:18:11;5.90;;;3.95;;
64907;SDS011;51412;52.236;5.188;2022-07-23T02:20:37;5.60;;;4.05;;
64907;SDS011;51412;52.236;5.188;2022-07-23T02:23:05;5.10;;;4.20;;
64907;SDS011;51412;52.236;5.188;2022-07-23T02:25:32;6.07;;;3.90;;
64907;SDS011;51412;52.236;5.188;2022-07-23T02:27:58;8.07;;;3.90;;
64907;SDS011;51412;52.236;5.188;2022-07-23T02:30:25;8.07;;;3.65;;
64907;SDS011;51412;52.236;5.188;2022-07-23T02:32:53;5.10;;;3.90;;
64907;SDS011;51412;52.236;5.188;2022-07-23T02:35:19;6.15;;;3.67;;
64907;SDS011;51412;52.236;5.188;2022-07-23T02:37:46;6.25;;;4.00;;
64907;SDS011;51412;52.236;5.188;2022-07-23T02:40:12;5.57;;;3.80;;
64907;SDS011;51412;52.236;5.188;2022-07-23T02:42:39;5.00;;;4.00;;
64907;SDS011;51412;52.236;5.188;2022-07-23T02:45:06;4.85;;;3.92;;
64907;SDS011;51412;52.236;5.188;2022-07-23T02:47:33;4.15;;;3.75;;
64907;SDS011;51412;52.236;5.188;2022-07-23T02:50:01;7.00;;;4.25;;
64907;SDS011;51412;52.236;5.188;2022-07-23T02:52:28;5.32;;;4.00;;
64907;SDS011;51412;52.236;5.188;2022-07-23T02:54:55;5.07;;;3.63;;
64907;SDS011;51412;52.236;5.188;2022-07-23T02:57:21;3.70;;;3.28;;
64907;SDS011;51412;52.236;5.188;2022-07-23T02:59:48;8.77;;;3.85;;
64907;SDS011;51412;52.236;5.188;2022-07-23T03:02:14;4.90;;;3.58;;
64907;SDS011;51412;52.236;5.188;2022-07-23T03:04:40;4.38;;;3.53;;
64907;SDS011;51412;52.236;5.188;2022-07-23T03:07:09;4.90;;;3.50;;
64907;SDS011;51412;52.236;5.188;2022-07-23T03:09:36;5.47;;;3.60;;
64907;SDS011;51412;52.236;5.188;2022-07-23T03:12:02;4.70;;;3.65;;
64907;SDS011;51412;52.236;5.188;2022-07-23T03:14:29;5.88;;;3.45;;
64907;SDS011;51412;52.236;5.188;2022-07-23T03:16:55;5.82;;;4.47;;
64907;SDS011;51412;52.236;5.188;2022-07-23T03:19:22;6.05;;;3.42;;
64907;SDS011;51412;52.236;5.188;2022-07-23T03:21:48;5.80;;;3.83;;
64907;SDS011;51412;52.236;5.188;2022-07-23T03:24:16;5.30;;;3.58;;
64907;SDS011;51412;52.236;5.188;2022-07-23T03:26:43;5.78;;;3.60;;
64907;SDS011;51412;52.236;5.188;2022-07-23T03:29:10;5.15;;;3.40;;
64907;SDS011;51412;52.236;5.188;2022-07-23T03:31:36;4.70;;;3.78;;
64907;SDS011;51412;52.236;5.188;2022-07-23T03:34:03;7.80;;;4.10;;
64907;SDS011;51412;52.236;5.188;2022-07-23T03:36:29;6.93;;;3.53;;
64907;SDS011;51412;52.236;5.188;2022-07-23T03:38:56;5.05;;;3.30;;
64907;SDS011;51412;52.236;5.188;2022-07-23T03:41:24;4.25;;;3.72;;
64907;SDS011;51412;52.236;5.188;2022-07-23T03:43:50;5.22;;;3.40;;
64907;SDS011;51412;52.236;5.188;2022-07-23T03:46:17;5.88;;;3.40;;
64907;SDS011;51412;52.236;5.188;2022-07-23T03:48:43;4.38;;;3.60;;
64907;SDS011;51412;52.236;5.188;2022-07-23T03:51:10;5.32;;;3.75;;
64907;SDS011;51412;52.236;5.188;2022-07-23T03:53:36;5.15;;;3.80;;
64907;SDS011;51412;52.236;5.188;2022-07-23T03:56:03;4.63;;;3.75;;
64907;SDS011;51412;52.236;5.188;2022-07-23T03:58:31;9.82;;;3.92;;
64907;SDS011;51412;52.236;5.188;2022-07-23T04:00:57;6.43;;;3.60;;
64907;SDS011;51412;52.236;5.188;2022-07-23T04:03:24;6.68;;;3.88;;
64907;SDS011;51412;52.236;5.188;2022-07-23T04:05:50;8.05;;;4.00;;
64907;SDS011;51412;52.236;5.188;2022-07-23T04:08:17;6.03;;;3.80;;
64907;SDS011;51412;52.236;5.188;2022-07-23T04:10:43;6.38;;;3.92;;
64907;SDS011;51412;52.236;5.188;2022-07-23T04:13:10;4.68;;;3.70;;
64907;SDS011;51412;52.236;5.188;2022-07-23T04:15:38;6.32;;;3.97;;
64907;SDS011;51412;52.236;5.188;2022-07-23T04:18:04;4.80;;;3.75;;
64907;SDS011;51412;52.236;5.188;2022-07-23T04:20:31;7.68;;;3.55;;
64907;SDS011;51412;52.236;5.188;2022-07-23T04:22:57;4.88;;;3.97;;
64907;SDS011;51412;52.236;5.188;2022-07-23T04:25:24;5.47;;;3.47;;
64907;SDS011;51412;52.236;5.188;2022-07-23T04:27:50;5.20;;;3.90;;
64907;SDS011;51412;52.236;5.188;2022-07-23T04:30:16;4.78;;;3.20;;
64907;SDS011;51412;52.236;5.188;2022-07-23T04:32:44;4.95;;;3.58;;
64907;SDS011;51412;52.236;5.188;2022-07-23T04:35:11;5.20;;;3.65;;
64907;SDS011;51412;52.236;5.188;2022-07-23T04:37:37;6.57;;;4.03;;
64907;SDS011;51412;52.236;5.188;2022-07-23T04:40:04;5.88;;;4.07;;
64907;SDS011;51412;52.236;5.188;2022-07-23T04:42:31;5.50;;;3.85;;
64907;SDS011;51412;52.236;5.188;2022-07-23T04:44:58;5.88;;;4.35;;
64907;SDS011;51412;52.236;5.188;2022-07-23T04:47:24;7.88;;;4.50;;
64907;SDS011;51412;52.236;5.188;2022-07-23T04:49:52;7.88;;;4.57;;
64907;SDS011;51412;52.236;5.188;2022-07-23T04:52:19;6.82;;;4.28;;
64907;SDS011;51412;52.236;5.188;2022-07-23T04:54:45;6.45;;;4.07;;
64907;SDS011;51412;52.236;5.188;2022-07-23T04:57:12;5.78;;;4.00;;
64907;SDS011;51412;52.236;5.188;2022-07-23T04:59:38;16.25;;;4.45;;
64907;SDS011;51412;52.236;5.188;2022-07-23T05:02:05;11.52;;;3.90;;
64907;SDS011;51412;52.236;5.188;2022-07-23T05:04:31;5.03;;;3.97;;
64907;SDS011;51412;52.236;5.188;2022-07-23T05:06:59;5.75;;;4.00;;
64907;SDS011;51412;52.236;5.188;2022-07-23T05:09:26;26.40;;;4.72;;
64907;SDS011;51412;52.236;5.188;2022-07-23T05:11:52;8.80;;;4.00;;
64907;SDS011;51412;52.236;5.188;2022-07-23T05:14:19;10.80;;;4.00;;
64907;SDS011;51412;52.236;5.188;2022-07-23T05:16:45;10.15;;;3.78;;
64907;SDS011;51412;52.236;5.188;2022-07-23T05:19:12;7.72;;;3.20;;
64907;SDS011;51412;52.236;5.188;2022-07-23T05:21:38;8.98;;;4.05;;
64907;SDS011;51412;52.236;5.188;2022-07-23T05:24:07;13.00;;;4.07;;
64907;SDS011;51412;52.236;5.188;2022-07-23T05:26:33;7.72;;;3.75;;
64907;SDS011;51412;52.236;5.188;2022-07-23T05:29:00;8.30;;;3.63;;
64907;SDS011;51412;52.236;5.188;2022-07-23T05:31:26;6.20;;;3.63;;
64907;SDS011;51412;52.236;5.188;2022-07-23T05:33:52;6.00;;;3.38;;
64907;SDS011;51412;52.236;5.188;2022-07-23T05:36:19;6.68;;;3.60;;
64907;SDS011;51412;52.236;5.188;2022-07-23T05:38:45;6.15;;;3.67;;
64907;SDS011;51412;52.236;5.188;2022-07-23T05:41:13;4.95;;;3.08;;
64907;SDS011;51412;52.236;5.188;2022-07-23T05:43:40;5.25;;;3.47;;
64907;SDS011;51412;52.236;5.188;2022-07-23T05:46:06;5.30;;;3.50;;
64907;SDS011;51412;52.236;5.188;2022-07-23T05:48:32;4.68;;;3.22;;
64907;SDS011;51412;52.236;5.188;2022-07-23T05:50:59;4.63;;;3.05;;
64907;SDS011;51412;52.236;5.188;2022-07-23T05:53:25;5.28;;;3.00;;
64907;SDS011;51412;52.236;5.188;2022-07-23T05:55:52;3.63;;;3.10;;
64907;SDS011;51412;52.236;5.188;2022-07-23T05:58:20;4.75;;;3.28;;
64907;SDS011;51412;52.236;5.188;2022-07-23T06:00:46;6.05;;;3.53;;
64907;SDS011;51412;52.236;5.188;2022-07-23T06:03:14;37.67;;;3.92;;
64907;SDS011;51412;52.236;5.188;2022-07-23T06:05:40;4.78;;;2.90;;
64907;SDS011;51412;52.236;5.188;2022-07-23T06:08:07;8.10;;;3.20;;
64907;SDS011;51412;52.236;5.188;2022-07-23T06:10:34;7.20;;;3.30;;
64907;SDS011;51412;52.236;5.188;2022-07-23T06:13:00;3.50;;;2.88;;
64907;SDS011;51412;52.236;5.188;2022-07-23T06:15:28;5.10;;;3.33;;
64907;SDS011;51412;52.236;5.188;2022-07-23T06:17:55;3.83;;;3.10;;
64907;SDS011;51412;52.236;5.188;2022-07-23T06:20:21;4.07;;;3.08;;
64907;SDS011;51412;52.236;5.188;2022-07-23T06:22:48;8.68;;;3.33;;
64907;SDS011;51412;52.236;5.188;2022-07-23T06:25:14;3.40;;;3.08;;
64907;SDS011;51412;52.236;5.188;2022-07-23T06:27:41;4.70;;;3.05;;
64907;SDS011;51412;52.236;5.188;2022-07-23T06:30:08;5.50;;;3.15;;
64907;SDS011;51412;52.236;5.188;2022-07-23T06:32:37;7.10;;;2.90;;
64907;SDS011;51412;52.236;5.188;2022-07-23T06:35:04;3.50;;;2.72;;
64907;SDS011;51412;52.236;5.188;2022-07-23T06:37:31;6.28;;;3.08;;
64907;SDS011;51412;52.236;5.188;2022-07-23T06:39:57;4.85;;;2.95;;
64907;SDS011;51412;52.236;5.188;2022-07-23T06:42:24;3.83;;;3.08;;
64907;SDS011;51412;52.236;5.188;2022-07-23T06:44:50;2.92;;;2.67;;
64907;SDS011;51412;52.236;5.188;2022-07-23T06:47:16;5.22;;;2.70;;
64907;SDS011;51412;52.236;5.188;2022-07-23T06:49:44;4.65;;;2.45;;
64907;SDS011;51412;52.236;5.188;2022-07-23T06:52:11;3.67;;;2.65;;
64907;SDS011;51412;52.236;5.188;2022-07-23T06:54:37;2.95;;;2.55;;
64907;SDS011;51412;52.236;5.188;2022-07-23T06:57:04;5.22;;;2.53;;
64907;SDS011;51412;52.236;5.188;2022-07-23T06:59:30;5.47;;;2.70;;
64907;SDS011;51412;52.236;5.188;2022-07-23T07:01:58;4.43;;;2.35;;
64907;SDS011;51412;52.236;5.188;2022-07-23T07:04:24;3.63;;;2.50;;
64907;SDS011;51412;52.236;5.188;2022-07-23T07:06:52;4.75;;;2.90;;
64907;SDS011;51412;52.236;5.188;2022-07-23T07:09:19;3.53;;;2.45;;
64907;SDS011;51412;52.236;5.188;2022-07-23T07:11:45;6.72;;;2.72;;
64907;SDS011;51412;52.236;5.188;2022-07-23T07:14:12;3.47;;;2.50;;
64907;SDS011;51412;52.236;5.188;2022-07-23T07:16:38;4.25;;;2.70;;
64907;SDS011;51412;52.236;5.188;2022-07-23T07:19:04;3.70;;;2.60;;
64907;SDS011;51412;52.236;5.188;2022-07-23T07:21:31;6.45;;;2.80;;
64907;SDS011;51412;52.236;5.188;2022-07-23T07:23:59;4.40;;;2.85;;
64907;SDS011;51412;52.236;5.188;2022-07-23T07:26:25;4.70;;;3.00;;
64907;SDS011;51412;52.236;5.188;2022-07-23T07:28:52;4.18;;;2.92;;
64907;SDS011;51412;52.236;5.188;2022-07-23T07:31:18;5.32;;;2.78;;
64907;SDS011;51412;52.236;5.188;2022-07-23T07:33:45;4.70;;;2.85;;
64907;SDS011;51412;52.236;5.188;2022-07-23T07:36:11;6.10;;;2.60;;
64907;SDS011;51412;52.236;5.188;2022-07-23T07:38:38;4.63;;;2.63;;
64907;SDS011;51412;52.236;5.188;2022-07-23T07:41:06;3.00;;;2.28;;
64907;SDS011;51412;52.236;5.188;2022-07-23T07:43:35;5.85;;;2.70;;
64907;SDS011;51412;52.236;5.188;2022-07-23T07:46:01;3.40;;;2.45;;
64907;SDS011;51412;52.236;5.188;2022-07-23T07:48:28;4.78;;;2.40;;
64907;SDS011;51412;52.236;5.188;2022-07-23T07:50:55;5.38;;;2.60;;
64907;SDS011;51412;52.236;5.188;2022-07-23T07:53:21;5.13;;;2.75;;
64907;SDS011;51412;52.236;5.188;2022-07-23T07:55:48;6.53;;;2.95;;
64907;SDS011;51412;52.236;5.188;2022-07-23T07:58:15;2.67;;;2.40;;
64907;SDS011;51412;52.236;5.188;2022-07-23T08:00:42;2.72;;;2.30;;
64907;SDS011;51412;52.236;5.188;2022-07-23T08:03:08;3.30;;;2.80;;
64907;SDS011;51412;52.236;5.188;2022-07-23T08:05:35;4.47;;;2.78;;
64907;SDS011;51412;52.236;5.188;2022-07-23T08:08:01;4.20;;;2.53;;
64907;SDS011;51412;52.236;5.188;2022-07-23T08:10:28;4.50;;;2.92;;
64907;SDS011;51412;52.236;5.188;2022-07-23T08:12:56;5.20;;;2.28;;
64907;SDS011;51412;52.236;5.188;2022-07-23T08:15:25;4.55;;;2.40;;
64907;SDS011;51412;52.236;5.188;2022-07-23T08:17:52;4.45;;;2.30;;
64907;SDS011;51412;52.236;5.188;2022-07-23T08:20:20;4.53;;;2.70;;
64907;SDS011;51412;52.236;5.188;2022-07-23T08:22:49;3.33;;;2.22;;
64907;SDS011;51412;52.236;5.188;2022-07-23T08:25:19;3.20;;;2.30;;
64907;SDS011;51412;52.236;5.188;2022-07-23T08:27:47;4.03;;;2.70;;
64907;SDS011;51412;52.236;5.188;2022-07-23T08:30:15;5.07;;;2.60;;
64907;SDS011;51412;52.236;5.188;2022-07-23T08:32:50;5.63;;;2.72;;
64907;SDS011;51412;52.236;5.188;2022-07-23T08:35:21;2.95;;;2.63;;
64907;SDS011;51412;52.236;5.188;2022-07-23T08:37:49;2.45;;;2.25;;
64907;SDS011;51412;52.236;5.188;2022-07-23T08:40:16;5.05;;;2.75;;
64907;SDS011;51412;52.236;5.188;2022-07-23T08:42:43;3.25;;;2.33;;
64907;SDS011;51412;52.236;5.188;2022-07-23T08:45:11;3.00;;;2.60;;
64907;SDS011;51412;52.236;5.188;2022-07-23T08:47:38;3.63;;;2.60;;
64907;SDS011;51412;52.236;5.188;2022-07-23T08:50:07;3.83;;;2.30;;
64907;SDS011;51412;52.236;5.188;2022-07-23T08:52:34;5.35;;;2.28;;
64907;SDS011;51412;52.236;5.188;2022-07-23T08:55:03;3.08;;;2.33;;
64907;SDS011;51412;52.236;5.188;2022-07-23T08:57:30;3.35;;;2.75;;
64907;SDS011;51412;52.236;5.188;2022-07-23T08:59:56;3.83;;;2.63;;
64907;SDS011;51412;52.236;5.188;2022-07-23T09:02:23;3.67;;;2.28;;
64907;SDS011;51412;52.236;5.188;2022-07-23T09:04:49;2.83;;;2.20;;
64907;SDS011;51412;52.236;5.188;2022-07-23T09:07:17;3.13;;;2.30;;
64907;SDS011;51412;52.236;5.188;2022-07-23T09:09:44;4.68;;;2.28;;
64907;SDS011;51412;52.236;5.188;2022-07-23T09:12:10;4.97;;;2.83;;
64907;SDS011;51412;52.236;5.188;2022-07-23T09:14:38;3.85;;;2.50;;
64907;SDS011;51412;52.236;5.188;2022-07-23T09:17:09;4.05;;;2.60;;
64907;SDS011;51412;52.236;5.188;2022-07-23T09:19:36;4.07;;;2.50;;
64907;SDS011;51412;52.236;5.188;2022-07-23T09:22:18;5.82;;;2.78;;
64907;SDS011;51412;52.236;5.188;2022-07-23T09:27:47;2.58;;;2.33;;
64907;SDS011;51412;52.236;5.188;2022-07-23T09:30:15;2.28;;;2.17;;
64907;SDS011;51412;52.236;5.188;2022-07-23T09:32:42;3.38;;;2.25;;
64907;SDS011;51412;52.236;5.188;2022-07-23T09:35:09;2.60;;;2.20;;
64907;SDS011;51412;52.236;5.188;2022-07-23T09:37:37;3.08;;;2.63;;
64907;SDS011;51412;52.236;5.188;2022-07-23T09:40:04;2.55;;;2.20;;
64907;SDS011;51412;52.236;5.188;2022-07-23T09:42:33;3.28;;;2.38;;
64907;SDS011;51412;52.236;5.188;2022-07-23T09:44:59;5.75;;;2.35;;
64907;SDS011;51412;52.236;5.188;2022-07-23T09:47:27;2.75;;;2.38;;
64907;SDS011;51412;52.236;5.188;2022-07-23T09:49:58;5.50;;;2.58;;
64907;SDS011;51412;52.236;5.188;2022-07-23T09:52:26;4.25;;;2.30;;
64907;SDS011;51412;52.236;5.188;2022-07-23T09:54:58;3.05;;;2.45;;
64907;SDS011;51412;52.236;5.188;2022-07-23T09:57:26;3.17;;;2.47;;
64907;SDS011;51412;52.236;5.188;2022-07-23T09:59:53;4.38;;;2.50;;
64907;SDS011;51412;52.236;5.188;2022-07-23T10:02:23;3.67;;;2.42;;
64907;SDS011;51412;52.236;5.188;2022-07-23T10:04:51;4.93;;;2.83;;
64907;SDS011;51412;52.236;5.188;2022-07-23T10:07:19;3.20;;;2.35;;
64907;SDS011;51412;52.236;5.188;2022-07-23T10:09:48;3.97;;;2.40;;
64907;SDS011;51412;52.236;5.188;2022-07-23T10:12:19;4.80;;;2.50;;
64907;SDS011;51412;52.236;5.188;2022-07-23T10:15:00;3.13;;;2.40;;
64907;SDS011;51412;52.236;5.188;2022-07-23T10:17:27;2.65;;;2.20;;
64907;SDS011;51412;52.236;5.188;2022-07-23T10:19:54;4.00;;;2.65;;
64907;SDS011;51412;52.236;5.188;2022-07-23T10:22:21;5.18;;;2.67;;
64907;SDS011;51412;52.236;5.188;2022-07-23T10:24:53;6.03;;;2.70;;
64907;SDS011;51412;52.236;5.188;2022-07-23T10:27:34;3.88;;;2.42;;
64907;SDS011;51412;52.236;5.188;2022-07-23T10:30:15;4.78;;;2.38;;
64907;SDS011;51412;52.236;5.188;2022-07-23T10:32:49;5.45;;;3.13;;
64907;SDS011;51412;52.236;5.188;2022-07-23T10:35:26;4.18;;;2.65;;
64907;SDS011;51412;52.236;5.188;2022-07-23T10:38:00;2.80;;;2.60;;
64907;SDS011;51412;52.236;5.188;2022-07-23T10:40:28;4.80;;;2.50;;
64907;SDS011;51412;52.236;5.188;2022-07-23T10:42:59;5.72;;;2.85;;
64907;SDS011;51412;52.236;5.188;2022-07-23T10:45:28;2.95;;;2.55;;
64907;SDS011;51412;52.236;5.188;2022-07-23T10:48:11;2.58;;;2.38;;
64907;SDS011;51412;52.236;5.188;2022-07-23T10:50:39;4.30;;;2.67;;
64907;SDS011;51412;52.236;5.188;2022-07-23T10:53:14;5.57;;;2.97;;
64907;SDS011;51412;52.236;5.188;2022-07-23T10:55:44;4.25;;;2.55;;
64907;SDS011;51412;52.236;5.188;2022-07-23T10:58:17;5.03;;;2.70;;
64907;SDS011;51412;52.236;5.188;2022-07-23T11:00:44;6.22;;;2.72;;
64907;SDS011;51412;52.236;5.188;2022-07-23T11:03:33;2.53;;;2.33;;
64907;SDS011;51412;52.236;5.188;2022-07-23T11:06:03;2.50;;;2.30;;
64907;SDS011;51412;52.236;5.188;2022-07-23T11:08:31;2.60;;;2.40;;
64907;SDS011;51412;52.236;5.188;2022-07-23T11:11:07;4.85;;;2.53;;
64907;SDS011;51412;52.236;5.188;2022-07-23T11:13:38;3.72;;;2.63;;
64907;SDS011;51412;52.236;5.188;2022-07-23T11:16:07;3.13;;;2.70;;
64907;SDS011;51412;52.236;5.188;2022-07-23T11:18:54;4.47;;;2.78;;
64907;SDS011;51412;52.236;5.188;2022-07-23T11:21:45;3.50;;;2.95;;
64907;SDS011;51412;52.236;5.188;2022-07-23T11:24:17;4.25;;;2.60;;
64907;SDS011;51412;52.236;5.188;2022-07-23T11:26:46;2.90;;;2.42;;
64907;SDS011;51412;52.236;5.188;2022-07-23T11:32:18;3.20;;;2.90;;
64907;SDS011;51412;52.236;5.188;2022-07-23T11:34:49;3.83;;;2.70;;
64907;SDS011;51412;52.236;5.188;2022-07-23T11:37:26;4.55;;;2.95;;
64907;SDS011;51412;52.236;5.188;2022-07-23T11:39:55;3.58;;;2.67;;
64907;SDS011;51412;52.236;5.188;2022-07-23T11:42:22;3.70;;;2.75;;
64907;SDS011;51412;52.236;5.188;2022-07-23T11:44:50;4.07;;;2.90;;
64907;SDS011;51412;52.236;5.188;2022-07-23T11:47:21;3.35;;;2.80;;
64907;SDS011;51412;52.236;5.188;2022-07-23T11:49:52;3.63;;;2.60;;
64907;SDS011;51412;52.236;5.188;2022-07-23T11:52:20;6.03;;;3.05;;
64907;SDS011;51412;52.236;5.188;2022-07-23T11:54:48;4.03;;;2.90;;
64907;SDS011;51412;52.236;5.188;2022-07-23T11:57:15;5.28;;;2.80;;
64907;SDS011;51412;52.236;5.188;2022-07-23T11:59:42;5.05;;;2.80;;
64907;SDS011;51412;52.236;5.188;2022-07-23T12:02:13;4.80;;;3.20;;
64907;SDS011;51412;52.236;5.188;2022-07-23T12:04:40;3.08;;;2.60;;
64907;SDS011;51412;52.236;5.188;2022-07-23T12:07:22;2.80;;;2.55;;
64907;SDS011;51412;52.236;5.188;2022-07-23T12:09:50;5.00;;;3.00;;
64907;SDS011;51412;52.236;5.188;2022-07-23T12:12:17;4.30;;;3.13;;
64907;SDS011;51412;52.236;5.188;2022-07-23T12:14:48;5.18;;;3.00;;
64907;SDS011;51412;52.236;5.188;2022-07-23T12:17:16;3.90;;;2.70;;
64907;SDS011;51412;52.236;5.188;2022-07-23T12:19:43;5.93;;;3.10;;
64907;SDS011;51412;52.236;5.188;2022-07-23T12:22:10;4.22;;;3.13;;
64907;SDS011;51412;52.236;5.188;2022-07-23T12:24:52;4.05;;;3.15;;
64907;SDS011;51412;52.236;5.188;2022-07-23T12:27:20;6.50;;;3.50;;
64907;SDS011;51412;52.236;5.188;2022-07-23T12:29:47;4.63;;;3.00;;
64907;SDS011;51412;52.236;5.188;2022-07-23T12:32:19;4.68;;;3.17;;
64907;SDS011;51412;52.236;5.188;2022-07-23T12:34:48;7.07;;;3.42;;
64907;SDS011;51412;52.236;5.188;2022-07-23T12:37:28;7.03;;;3.42;;
64907;SDS011;51412;52.236;5.188;2022-07-23T12:39:56;5.32;;;3.10;;
64907;SDS011;51412;52.236;5.188;2022-07-23T12:42:23;5.50;;;3.58;;
64907;SDS011;51412;52.236;5.188;2022-07-23T12:45:03;4.25;;;3.00;;
64907;SDS011;51412;52.236;5.188;2022-07-23T12:50:36;5.43;;;3.95;;
64907;SDS011;51412;52.236;5.188;2022-07-23T12:53:06;3.78;;;3.30;;
64907;SDS011;51412;52.236;5.188;2022-07-23T12:55:34;3.58;;;3.05;;
64907;SDS011;51412;52.236;5.188;2022-07-23T12:58:08;6.05;;;3.72;;
64907;SDS011;51412;52.236;5.188;2022-07-23T13:00:50;5.15;;;3.15;;
64907;SDS011;51412;52.236;5.188;2022-07-23T13:03:26;4.13;;;3.72;;
64907;SDS011;51412;52.236;5.188;2022-07-23T13:05:55;6.15;;;3.88;;
64907;SDS011;51412;52.236;5.188;2022-07-23T13:08:22;4.93;;;3.75;;
64907;SDS011;51412;52.236;5.188;2022-07-23T13:10:49;4.50;;;3.13;;
64907;SDS011;51412;52.236;5.188;2022-07-23T13:13:17;4.90;;;3.53;;
64907;SDS011;51412;52.236;5.188;2022-07-23T13:15:47;7.40;;;4.10;;
64907;SDS011;51412;52.236;5.188;2022-07-23T13:18:14;4.10;;;3.63;;
64907;SDS011;51412;52.236;5.188;2022-07-23T13:20:43;4.32;;;3.35;;
64907;SDS011;51412;52.236;5.188;2022-07-23T13:23:11;7.68;;;3.63;;
64907;SDS011;51412;52.236;5.188;2022-07-23T13:25:37;4.72;;;3.30;;
64907;SDS011;51412;52.236;5.188;2022-07-23T13:28:04;3.80;;;3.00;;
64907;SDS011;51412;52.236;5.188;2022-07-23T13:30:31;6.10;;;3.25;;
64907;SDS011;51412;52.236;5.188;2022-07-23T13:32:58;6.22;;;3.53;;
64907;SDS011;51412;52.236;5.188;2022-07-23T13:35:25;4.53;;;3.45;;
64907;SDS011;51412;52.236;5.188;2022-07-23T13:37:52;5.32;;;3.95;;
64907;SDS011;51412;52.236;5.188;2022-07-23T13:40:19;7.97;;;3.60;;
64907;SDS011;51412;52.236;5.188;2022-07-23T13:42:46;5.35;;;3.80;;
64907;SDS011;51412;52.236;5.188;2022-07-23T13:45:13;4.10;;;3.53;;
64907;SDS011;51412;52.236;5.188;2022-07-23T13:47:39;4.20;;;3.72;;
64907;SDS011;51412;52.236;5.188;2022-07-23T13:50:06;4.68;;;3.80;;
64907;SDS011;51412;52.236;5.188;2022-07-23T13:52:33;4.30;;;3.90;;
64907;SDS011;51412;52.236;5.188;2022-07-23T13:55:01;5.53;;;4.10;;
64907;SDS011;51412;52.236;5.188;2022-07-23T13:57:29;6.35;;;4.07;;
64907;SDS011;51412;52.236;5.188;2022-07-23T13:59:55;5.63;;;4.15;;
64907;SDS011;51412;52.236;5.188;2022-07-23T14:02:22;5.28;;;4.32;;
64907;SDS011;51412;52.236;5.188;2022-07-23T14:04:49;6.82;;;4.30;;
64907;SDS011;51412;52.236;5.188;2022-07-23T14:07:16;4.72;;;4.13;;
64907;SDS011;51412;52.236;5.188;2022-07-23T14:09:43;5.35;;;4.10;;
64907;SDS011;51412;52.236;5.188;2022-07-23T14:12:11;5.90;;;4.18;;
64907;SDS011;51412;52.236;5.188;2022-07-23T14:14:37;6.18;;;3.47;;
64907;SDS011;51412;52.236;5.188;2022-07-23T14:17:04;7.10;;;4.10;;
64907;SDS011;51412;52.236;5.188;2022-07-23T14:19:30;5.43;;;4.03;;
64907;SDS011;51412;52.236;5.188;2022-07-23T14:21:57;4.85;;;3.53;;
64907;SDS011;51412;52.236;5.188;2022-07-23T14:24:23;3.67;;;3.28;;
64907;SDS011;51412;52.236;5.188;2022-07-23T14:26:50;4.50;;;3.40;;
64907;SDS011;51412;52.236;5.188;2022-07-23T14:29:18;6.13;;;3.47;;
64907;SDS011;51412;52.236;5.188;2022-07-23T14:31:44;4.90;;;3.60;;
64907;SDS011;51412;52.236;5.188;2022-07-23T14:34:11;4.50;;;3.60;;
64907;SDS011;51412;52.236;5.188;2022-07-23T14:36:37;4.60;;;4.00;;
64907;SDS011;51412;52.236;5.188;2022-07-23T14:39:04;7.18;;;4.30;;
64907;SDS011;51412;52.236;5.188;2022-07-23T14:41:33;4.95;;;3.40;;
64907;SDS011;51412;52.236;5.188;2022-07-23T14:44:00;5.85;;;3.83;;
64907;SDS011;51412;52.236;5.188;2022-07-23T14:46:28;5.18;;;3.40;;
64907;SDS011;51412;52.236;5.188;2022-07-23T14:48:55;4.30;;;3.35;;
64907;SDS011;51412;52.236;5.188;2022-07-23T14:51:21;4.80;;;3.97;;
64907;SDS011;51412;52.236;5.188;2022-07-23T14:53:48;5.93;;;3.42;;
64907;SDS011;51412;52.236;5.188;2022-07-23T14:56:14;5.13;;;3.30;;
64907;SDS011;51412;52.236;5.188;2022-07-23T14:58:41;7.10;;;3.85;;
64907;SDS011;51412;52.236;5.188;2022-07-23T15:01:08;10.10;;;4.40;;